Diane B. Siegel — WDE8188 — position and weather

sailwx.info

Track history (hours):
 
Tides and Currents Weather Stations Pressure Air Temp Water Temp Dewpoint Dewpoint Depression Visibility Wind Speed Wind Dir Waves Ship Positions

Diane B. Siegel

Owner: Crounse Corporation, Paducah, KY. More information available from US FCC via Universal Licensing System and Coast Guard Vessel Documentation Center.

Last reported at 2015-Apr-08 19:17 UTC. Time now 2015-Jul-05 23:19 UTC.
Position N 39°07' W 084°48'.
Warning: this ship's position is months out of date.

Type: Tow > 200 m length. MMSI: 367402560.

Date/timePositionNaut miles runAvg speedWind from/ knotsBaromVisibWave heightAir tempDewpointWater temp
2015-Apr-08 19:17N 39°07' W 084°48'0 0.5
2015-Apr-08 18:30N 39°07' W 084°48'0 0.0
2015-Apr-08 17:32N 39°07' W 084°48'2 1.2
2015-Apr-08 16:06N 39°06' W 084°50'4 2.1
2015-Apr-08 14:23N 39°04' W 084°54'10 2.0
2015-Apr-08 09:32N 38°54' W 084°51'1 0.6
2015-Apr-08 08:31N 38°54' W 084°50'0 0.1
2015-Apr-08 07:31N 38°54' W 084°50'5 1.6
2015-Apr-08 04:22N 38°49' W 084°49'  
Track history (hours):
 
Tides and Currents Weather Stations Pressure Air Temp Water Temp Dewpoint Dewpoint Depression Visibility Wind Speed Wind Dir Waves Ship Positions

Diane B. Siegel

Owner: Crounse Corporation, Paducah, KY. More information available from US FCC via Universal Licensing System and Coast Guard Vessel Documentation Center.

Last reported at 2015-Apr-08 19:17 UTC. Time now 2015-Jul-05 23:19 UTC.
Position N 39°07' W 084°48'.
Warning: this ship's position is months out of date.

Type: Tow > 200 m length. MMSI: 367402560.

Date/timePositionNaut miles runAvg speedWind from/ knotsBaromVisibWave heightAir tempDewpointWater temp
2015-Apr-08 19:17N 39°07' W 084°48'0 0.5
2015-Apr-08 18:30N 39°07' W 084°48'0 0.0
2015-Apr-08 17:32N 39°07' W 084°48'2 1.2
2015-Apr-08 16:06N 39°06' W 084°50'4 2.1
2015-Apr-08 14:23N 39°04' W 084°54'10 2.0
2015-Apr-08 09:32N 38°54' W 084°51'1 0.6
2015-Apr-08 08:31N 38°54' W 084°50'0 0.1
2015-Apr-08 07:31N 38°54' W 084°50'5 1.6
2015-Apr-08 04:22N 38°49' W 084°49'  

Dump ship's entire track history